createdAt,value
2022-07-29T00:02:09.583Z,0.82
2022-07-29T00:04:58.182Z,2.78
2022-07-29T00:07:46.955Z,2.25
2022-07-29T00:10:35.585Z,1.95
2022-07-29T00:13:32.285Z,2.10
2022-07-29T00:16:22.780Z,3.42
2022-07-29T00:19:11.363Z,2.70
2022-07-29T00:22:01.184Z,1.13
2022-07-29T00:24:50.549Z,2.80
2022-07-29T00:27:39.404Z,3.13
2022-07-29T00:30:27.990Z,2.53
2022-07-29T00:33:17.920Z,4.00
2022-07-29T00:36:06.089Z,4.93
2022-07-29T00:38:54.976Z,0.90
2022-07-29T00:41:43.496Z,4.03
2022-07-29T00:44:32.345Z,0.60
2022-07-29T00:47:20.891Z,1.42
2022-07-29T00:50:12.760Z,1.30
2022-07-29T00:53:02.052Z,1.60
2022-07-29T00:55:50.873Z,2.10
2022-07-29T00:58:41.479Z,1.75
2022-07-29T01:01:30.439Z,1.45
2022-07-29T01:04:19.176Z,1.20
2022-07-29T01:07:09.810Z,5.28
2022-07-29T01:09:59.540Z,2.10
2022-07-29T01:12:50.493Z,1.48
2022-07-29T01:15:48.952Z,1.02
2022-07-29T01:18:42.304Z,1.88
2022-07-29T01:21:47.180Z,1.10
2022-07-29T01:24:45.007Z,2.25
2022-07-29T01:27:54.527Z,1.05
2022-07-29T01:30:46.036Z,0.70
2022-07-29T01:33:50.709Z,3.92
2022-07-29T01:36:46.730Z,0.88
2022-07-29T01:39:37.057Z,4.25
2022-07-29T01:42:29.617Z,1.20
2022-07-29T01:45:20.214Z,2.92
2022-07-29T01:48:14.937Z,2.97
2022-07-29T01:51:08.613Z,1.67
2022-07-29T01:54:01.656Z,1.65
2022-07-29T01:56:52.860Z,5.20
2022-07-29T01:59:42.024Z,1.75
2022-07-29T02:02:31.942Z,8.07
2022-07-29T02:05:24.082Z,2.58
2022-07-29T02:08:13.737Z,2.35
2022-07-29T02:11:03.375Z,1.55
2022-07-29T02:13:52.416Z,0.90
2022-07-29T02:16:42.828Z,13.95
2022-07-29T02:19:34.590Z,4.35
2022-07-29T02:22:25.828Z,4.30
2022-07-29T02:25:15.039Z,3.67
2022-07-29T02:28:05.496Z,2.42
2022-07-29T02:30:56.331Z,2.05
2022-07-29T02:33:45.577Z,4.20
2022-07-29T02:36:34.438Z,2.95
2022-07-29T02:39:25.795Z,2.83
2022-07-29T02:42:16.104Z,2.55
2022-07-29T02:45:04.801Z,2.70
2022-07-29T02:47:54.472Z,2.67
2022-07-29T02:50:47.331Z,4.55
2022-07-29T02:53:36.626Z,5.57
2022-07-29T02:56:29.804Z,19.30
2022-07-29T02:59:20.815Z,4.53
2022-07-29T03:02:10.388Z,8.43
2022-07-29T03:05:00.904Z,7.63
2022-07-29T03:07:54.477Z,7.63
2022-07-29T03:10:48.182Z,4.28
2022-07-29T03:13:39.040Z,6.13
2022-07-29T03:16:27.854Z,5.30
2022-07-29T03:19:16.734Z,5.13
2022-07-29T03:22:05.418Z,5.90
2022-07-29T03:24:54.027Z,6.95
2022-07-29T03:27:42.880Z,8.77
2022-07-29T03:30:32.730Z,8.27
2022-07-29T03:33:22.422Z,9.32
2022-07-29T03:36:10.963Z,5.70
2022-07-29T03:38:59.611Z,7.95
2022-07-29T03:41:51.770Z,7.43
2022-07-29T03:44:41.568Z,4.18
2022-07-29T03:47:50.307Z,7.20
2022-07-29T03:50:40.353Z,5.88
2022-07-29T03:53:28.932Z,10.07
2022-07-29T03:56:18.637Z,11.40
2022-07-29T03:59:07.423Z,7.47
2022-07-29T04:01:56.350Z,8.70
2022-07-29T04:04:46.364Z,7.43
2022-07-29T04:07:34.929Z,6.60
2022-07-29T04:10:30.316Z,11.90
2022-07-29T04:13:20.900Z,10.88
2022-07-29T04:16:09.476Z,10.77
2022-07-29T04:18:58.117Z,8.65
2022-07-29T04:21:50.236Z,10.30
2022-07-29T04:24:40.217Z,12.73
2022-07-29T04:27:31.466Z,9.20
2022-07-29T04:30:20.243Z,17.05
2022-07-29T04:33:11.671Z,21.30
2022-07-29T04:36:00.184Z,23.65
2022-07-29T04:38:51.112Z,17.90
2022-07-29T04:41:39.679Z,18.77
2022-07-29T04:44:29.504Z,18.95
2022-07-29T04:47:19.027Z,17.17
2022-07-29T04:50:08.899Z,16.88
2022-07-29T04:52:57.433Z,18.73
2022-07-29T04:55:47.398Z,20.90
2022-07-29T04:58:37.099Z,16.70
2022-07-29T05:01:25.789Z,13.90
2022-07-29T05:04:14.536Z,18.88
2022-07-29T05:07:03.264Z,12.38
2022-07-29T05:09:51.739Z,13.68
2022-07-29T05:12:41.640Z,15.05
2022-07-29T05:15:30.197Z,13.68
2022-07-29T05:18:19.867Z,14.18
2022-07-29T05:21:14.640Z,19.02
2022-07-29T05:24:03.189Z,15.68
2022-07-29T05:26:52.769Z,12.90
2022-07-29T05:29:45.808Z,19.45
2022-07-29T05:32:34.551Z,15.98
2022-07-29T05:35:23.676Z,13.90
2022-07-29T05:38:12.164Z,13.98
2022-07-29T05:41:00.895Z,20.65
2022-07-29T05:43:49.597Z,13.73
2022-07-29T05:46:39.645Z,18.85
2022-07-29T05:49:28.442Z,14.95
2022-07-29T05:52:18.380Z,15.35
2022-07-29T05:55:07.646Z,15.98
2022-07-29T05:57:56.231Z,14.68
2022-07-29T06:00:44.991Z,12.95
2022-07-29T06:03:35.559Z,19.25
2022-07-29T06:06:24.129Z,12.32
2022-07-29T06:09:15.967Z,10.65
2022-07-29T06:12:04.857Z,11.30
2022-07-29T06:14:54.309Z,11.07
2022-07-29T06:18:00.207Z,14.50
2022-07-29T06:20:51.344Z,11.10
2022-07-29T06:23:39.986Z,13.98
2022-07-29T06:26:31.489Z,10.35
2022-07-29T06:29:21.131Z,11.25
2022-07-29T06:32:10.465Z,8.75
2022-07-29T06:35:24.475Z,9.43
2022-07-29T06:38:30.137Z,10.25
2022-07-29T06:41:18.039Z,10.05
2022-07-29T06:44:06.742Z,9.57
2022-07-29T06:46:55.802Z,13.13
2022-07-29T06:49:44.431Z,13.63
2022-07-29T06:52:33.004Z,9.43
2022-07-29T06:55:25.029Z,9.57
2022-07-29T06:58:21.469Z,10.02
2022-07-29T07:01:10.063Z,11.02
2022-07-29T07:04:02.437Z,12.93
2022-07-29T07:06:51.026Z,13.00
2022-07-29T07:09:39.922Z,11.30
2022-07-29T07:12:30.178Z,10.75
2022-07-29T07:15:22.653Z,10.93
2022-07-29T07:18:27.263Z,11.45
2022-07-29T07:21:19.290Z,10.25
2022-07-29T07:24:08.938Z,10.05
2022-07-29T07:26:57.543Z,10.70
2022-07-29T07:29:47.382Z,7.22
2022-07-29T07:32:36.172Z,9.18
2022-07-29T07:35:25.203Z,13.00
2022-07-29T07:38:13.745Z,10.18
2022-07-29T07:41:02.885Z,8.88
2022-07-29T07:43:51.397Z,14.02
2022-07-29T07:46:41.293Z,9.73
2022-07-29T07:49:30.804Z,12.73
2022-07-29T07:52:20.144Z,9.07
2022-07-29T07:55:09.676Z,14.55
2022-07-29T07:57:58.318Z,13.95
2022-07-29T08:00:46.888Z,12.25
2022-07-29T08:03:36.825Z,13.43
2022-07-29T08:06:26.013Z,16.58
2022-07-29T08:09:28.791Z,17.10
2022-07-29T08:12:18.602Z,11.45
2022-07-29T08:15:09.103Z,13.55
2022-07-29T08:17:57.678Z,12.45
2022-07-29T08:20:47.682Z,12.63
2022-07-29T08:23:45.540Z,20.83
2022-07-29T08:26:35.912Z,15.20
2022-07-29T08:29:24.456Z,14.30
2022-07-29T08:32:13.263Z,16.60
2022-07-29T08:35:01.948Z,13.18
2022-07-29T08:37:52.119Z,15.20
2022-07-29T08:40:40.679Z,9.73
2022-07-29T08:43:29.958Z,11.38
2022-07-29T08:46:19.226Z,13.25
2022-07-29T08:49:08.070Z,10.65
2022-07-29T08:51:59.858Z,15.88
2022-07-29T08:54:50.282Z,11.85
2022-07-29T08:57:39.306Z,10.65
2022-07-29T09:00:39.562Z,16.73
2022-07-29T09:03:33.482Z,20.35
2022-07-29T09:06:22.356Z,18.98
2022-07-29T09:09:11.146Z,11.32
2022-07-29T09:12:01.749Z,14.82
2022-07-29T09:14:50.353Z,13.57
2022-07-29T09:17:46.424Z,12.38
2022-07-29T09:20:48.892Z,12.48
2022-07-29T09:23:37.509Z,19.92
2022-07-29T09:26:31.498Z,11.88
2022-07-29T09:29:23.079Z,10.15
2022-07-29T09:32:13.027Z,9.38
2022-07-29T09:35:18.144Z,13.80
2022-07-29T09:38:13.557Z,17.27
2022-07-29T09:41:05.907Z,10.50
2022-07-29T09:43:58.516Z,12.00
2022-07-29T09:46:59.815Z,14.15
2022-07-29T09:49:58.907Z,11.73
2022-07-29T09:52:49.460Z,12.23
2022-07-29T09:55:50.750Z,10.57
2022-07-29T09:58:40.629Z,10.55
2022-07-29T10:01:30.905Z,11.75
2022-07-29T10:04:20.945Z,13.30
2022-07-29T10:07:09.664Z,12.88
2022-07-29T10:09:59.484Z,8.05
2022-07-29T10:12:52.440Z,11.32
2022-07-29T10:15:44.636Z,11.18
2022-07-29T10:18:33.437Z,9.75
2022-07-29T10:21:35.969Z,14.10
2022-07-29T10:24:25.197Z,11.07
2022-07-29T10:27:13.738Z,7.70
2022-07-29T10:30:02.690Z,11.20
2022-07-29T10:33:02.614Z,11.88
2022-07-29T10:36:02.568Z,12.32
2022-07-29T10:38:57.990Z,12.52
2022-07-29T10:41:59.374Z,10.40
2022-07-29T10:44:48.117Z,10.05
2022-07-29T10:47:36.612Z,8.48
2022-07-29T10:50:25.324Z,9.48
2022-07-29T10:53:14.314Z,8.20
2022-07-29T10:56:06.436Z,7.55
2022-07-29T10:59:27.089Z,8.15
2022-07-29T11:02:44.856Z,8.52
2022-07-29T11:09:20.219Z,5.85
2022-07-29T11:12:47.895Z,5.82
2022-07-29T11:15:55.775Z,5.72
2022-07-29T11:19:30.822Z,4.20
2022-07-29T11:22:34.874Z,4.45
2022-07-29T11:25:50.989Z,4.45
2022-07-29T11:28:32.878Z,3.22
2022-07-29T11:31:36.241Z,4.60
2022-07-29T11:34:28.168Z,1.85
2022-07-29T11:37:20.273Z,2.75
2022-07-29T11:40:20.172Z,5.35
2022-07-29T11:43:10.064Z,3.95
2022-07-29T11:46:03.452Z,2.67
2022-07-29T11:48:54.620Z,3.13
2022-07-29T11:51:48.370Z,2.00
2022-07-29T11:54:57.145Z,4.07
2022-07-29T12:01:04.819Z,1.38
2022-07-29T12:04:06.865Z,1.73
2022-07-29T12:07:00.500Z,1.80
2022-07-29T12:09:53.090Z,3.08
2022-07-29T12:12:47.861Z,2.15
2022-07-29T12:15:45.663Z,5.70
2022-07-29T12:18:35.032Z,4.05
2022-07-29T12:21:25.700Z,2.28
2022-07-29T12:24:14.600Z,1.33
2022-07-29T12:27:03.352Z,2.78
2022-07-29T12:29:58.832Z,3.90
2022-07-29T12:32:48.959Z,1.52
2022-07-29T12:35:37.760Z,3.88
2022-07-29T12:38:28.223Z,1.65
2022-07-29T12:41:17.418Z,1.60
2022-07-29T12:44:06.456Z,1.55
2022-07-29T12:47:04.659Z,1.45
2022-07-29T12:49:53.845Z,1.63
2022-07-29T12:52:42.447Z,1.73
2022-07-29T12:55:51.893Z,2.08
2022-07-29T12:58:44.522Z,2.97
2022-07-29T13:01:39.294Z,1.75
2022-07-29T13:04:28.642Z,6.00
2022-07-29T13:07:54.148Z,2.33
2022-07-29T13:10:38.580Z,3.33
2022-07-29T13:13:28.534Z,1.70
2022-07-29T13:16:17.186Z,3.67
2022-07-29T13:19:07.878Z,1.80
2022-07-29T13:21:56.957Z,3.08
2022-07-29T13:24:53.278Z,3.90
2022-07-29T13:27:42.343Z,3.50
2022-07-29T13:30:32.464Z,4.78
2022-07-29T13:33:21.102Z,4.13
2022-07-29T13:36:09.982Z,8.55
2022-07-29T13:38:58.558Z,3.28
2022-07-29T13:41:47.119Z,1.88
2022-07-29T13:44:35.882Z,2.88
2022-07-29T13:47:32.284Z,1.85
2022-07-29T13:50:22.861Z,1.75
2022-07-29T13:53:11.419Z,2.42
2022-07-29T13:56:07.786Z,6.13
2022-07-29T13:58:56.398Z,10.10
2022-07-29T14:01:45.571Z,24.63
2022-07-29T14:04:36.795Z,18.42
2022-07-29T14:07:28.268Z,8.38
2022-07-29T14:10:20.040Z,7.63
2022-07-29T14:13:25.177Z,8.70
2022-07-29T14:16:14.999Z,3.55
2022-07-29T14:19:03.618Z,3.70
2022-07-29T14:21:53.507Z,2.80
2022-07-29T14:24:42.149Z,4.40
2022-07-29T14:27:38.061Z,4.90
2022-07-29T14:30:27.134Z,1.80
2022-07-29T14:33:15.654Z,1.65
2022-07-29T14:36:04.245Z,2.05
2022-07-29T14:38:57.096Z,1.98
2022-07-29T14:41:45.812Z,2.20
2022-07-29T14:44:34.370Z,2.30
2022-07-29T14:47:24.311Z,1.83
2022-07-29T14:50:13.100Z,1.98
2022-07-29T14:53:01.802Z,8.02
2022-07-29T14:55:52.075Z,2.65
2022-07-29T14:58:40.875Z,3.03
2022-07-29T15:01:40.441Z,2.10
2022-07-29T15:04:29.207Z,4.32
2022-07-29T15:07:18.678Z,2.70
2022-07-29T15:10:08.015Z,4.38
2022-07-29T15:12:58.672Z,3.05
2022-07-29T15:15:47.161Z,3.70
2022-07-29T15:18:35.774Z,3.83
2022-07-29T15:21:24.329Z,5.55
2022-07-29T15:24:12.860Z,6.93
2022-07-29T15:27:01.519Z,3.33
2022-07-29T15:29:51.533Z,6.15
2022-07-29T15:32:40.053Z,3.30
2022-07-29T15:35:29.483Z,4.20
2022-07-29T15:38:18.461Z,5.38
2022-07-29T15:41:07.005Z,4.13
2022-07-29T15:43:55.613Z,5.78
2022-07-29T15:47:05.592Z,7.45
2022-07-29T15:49:55.636Z,6.65
2022-07-29T15:52:44.142Z,9.38
2022-07-29T15:55:32.755Z,7.50
2022-07-29T15:58:21.293Z,8.85
2022-07-29T16:01:10.049Z,6.70
2022-07-29T16:04:00.805Z,10.20
2022-07-29T16:06:49.782Z,9.52
2022-07-29T16:09:38.314Z,14.38
2022-07-29T16:12:29.138Z,18.17
2022-07-29T16:15:20.012Z,7.93
2022-07-29T16:18:09.321Z,19.17
2022-07-29T16:20:59.730Z,12.88
2022-07-29T16:23:48.252Z,8.10
2022-07-29T16:26:38.044Z,14.20
2022-07-29T16:29:26.675Z,12.57
2022-07-29T16:32:15.241Z,8.85
2022-07-29T16:35:11.358Z,8.38
2022-07-29T16:38:01.205Z,5.53
2022-07-29T16:40:49.784Z,11.25
2022-07-29T16:43:38.534Z,8.57
2022-07-29T16:46:27.164Z,6.75
2022-07-29T16:49:19.470Z,11.30
2022-07-29T16:52:08.627Z,5.75
2022-07-29T16:54:58.578Z,6.25
2022-07-29T16:57:47.194Z,11.38
2022-07-29T17:00:36.056Z,8.15
2022-07-29T17:03:24.702Z,6.38
2022-07-29T17:06:13.220Z,6.80
2022-07-29T17:09:01.695Z,5.55
2022-07-29T17:11:56.814Z,6.00
2022-07-29T17:14:51.440Z,5.72
2022-07-29T17:17:55.500Z,6.60
2022-07-29T17:20:45.585Z,9.95
2022-07-29T17:23:34.153Z,6.22
2022-07-29T17:26:22.762Z,4.57
2022-07-29T17:29:14.831Z,3.72
2022-07-29T17:32:03.767Z,4.35
2022-07-29T17:34:52.297Z,4.50
2022-07-29T17:37:40.866Z,4.88
2022-07-29T17:40:29.463Z,6.05
2022-07-29T17:43:17.996Z,5.57
2022-07-29T17:46:09.009Z,3.45
2022-07-29T17:48:58.905Z,4.20
2022-07-29T17:51:47.662Z,3.05
2022-07-29T17:54:36.306Z,5.60
2022-07-29T17:57:26.240Z,6.75
2022-07-29T18:00:15.499Z,4.15
2022-07-29T18:03:05.764Z,3.50
2022-07-29T18:05:55.065Z,2.28
2022-07-29T18:08:47.465Z,4.63
2022-07-29T18:11:36.191Z,4.25
2022-07-29T18:14:24.924Z,2.15
2022-07-29T18:17:15.076Z,3.88
2022-07-29T18:20:05.390Z,3.67
2022-07-29T18:22:54.023Z,4.38
2022-07-29T18:25:42.899Z,4.55
2022-07-29T18:28:32.707Z,3.85
2022-07-29T18:31:21.288Z,6.30
2022-07-29T18:34:09.815Z,3.45
2022-07-29T18:37:00.445Z,5.25
2022-07-29T18:39:49.591Z,3.25
2022-07-29T18:42:39.021Z,7.40
2022-07-29T18:45:28.730Z,3.30
2022-07-29T18:48:17.743Z,4.07
2022-07-29T18:51:09.087Z,3.15
2022-07-29T18:53:59.722Z,5.28
2022-07-29T18:56:48.409Z,4.53
2022-07-29T18:59:36.912Z,3.95
2022-07-29T19:02:25.845Z,3.88
2022-07-29T19:05:14.528Z,6.00
2022-07-29T19:08:03.124Z,7.28
2022-07-29T19:10:54.430Z,3.80
2022-07-29T19:13:42.952Z,7.68
2022-07-29T19:16:31.563Z,7.50
2022-07-29T19:19:20.137Z,8.13
2022-07-29T19:22:08.669Z,8.10
2022-07-29T19:24:57.176Z,7.90
2022-07-29T19:27:47.325Z,7.53
2022-07-29T19:30:36.089Z,4.05
2022-07-29T19:33:26.869Z,9.20
2022-07-29T19:36:15.587Z,4.88
2022-07-29T19:39:04.316Z,5.18
2022-07-29T19:41:56.473Z,7.47
2022-07-29T19:44:48.238Z,6.75
2022-07-29T19:47:38.262Z,7.18
2022-07-29T19:50:27.428Z,6.53
2022-07-29T19:53:17.400Z,3.15
2022-07-29T19:56:08.860Z,6.65
2022-07-29T19:58:58.043Z,3.40
2022-07-29T20:01:50.937Z,2.28
2022-07-29T20:04:39.605Z,3.55
2022-07-29T20:07:28.267Z,7.63
2022-07-29T20:10:17.019Z,3.22
2022-07-29T20:13:05.615Z,4.70
2022-07-29T20:15:54.203Z,4.55
2022-07-29T20:18:44.172Z,4.20
2022-07-29T20:21:33.947Z,8.20
2022-07-29T20:24:23.157Z,4.57
2022-07-29T20:27:13.416Z,5.43
2022-07-29T20:30:02.305Z,3.97
2022-07-29T20:32:51.400Z,2.40
2022-07-29T20:35:41.303Z,8.25
2022-07-29T20:38:30.675Z,4.60
2022-07-29T20:41:19.197Z,8.85
2022-07-29T20:44:07.997Z,3.63
2022-07-29T20:46:57.266Z,3.97
2022-07-29T20:49:46.038Z,2.42
2022-07-29T20:52:35.955Z,5.88
2022-07-29T20:55:24.480Z,2.13
2022-07-29T20:58:12.957Z,3.80
2022-07-29T21:01:01.721Z,2.40
2022-07-29T21:03:50.697Z,6.78
2022-07-29T21:06:39.305Z,9.27
2022-07-29T21:09:30.266Z,10.02
2022-07-29T21:12:18.992Z,5.28
2022-07-29T21:15:08.572Z,5.60
2022-07-29T21:18:02.042Z,8.23
2022-07-29T21:20:50.624Z,7.57
2022-07-29T21:23:39.145Z,2.95
2022-07-29T21:26:29.089Z,8.75
2022-07-29T21:29:16.689Z,9.05
2022-07-29T21:32:05.915Z,8.60
2022-07-29T21:34:55.552Z,4.72
2022-07-29T21:37:44.090Z,4.03
2022-07-29T21:40:32.568Z,3.45
2022-07-29T21:43:22.903Z,7.80
2022-07-29T21:46:11.525Z,2.40
2022-07-29T21:49:00.399Z,4.85
2022-07-29T21:51:49.114Z,3.58
2022-07-29T21:54:39.742Z,6.45
2022-07-29T21:57:29.996Z,4.40
2022-07-29T22:00:21.165Z,2.15
2022-07-29T22:03:10.611Z,2.55
2022-07-29T22:05:59.363Z,3.38
2022-07-29T22:08:48.142Z,3.17
2022-07-29T22:11:36.963Z,4.38
2022-07-29T22:14:25.642Z,6.78
2022-07-29T22:17:15.863Z,4.30
2022-07-29T22:20:05.102Z,6.05
2022-07-29T22:22:53.869Z,4.85
2022-07-29T22:25:42.611Z,3.80
2022-07-29T22:28:31.331Z,2.25
2022-07-29T22:31:20.155Z,4.68
2022-07-29T22:34:13.219Z,3.92
2022-07-29T22:37:02.223Z,4.88
2022-07-29T22:39:51.298Z,2.92
2022-07-29T22:42:40.933Z,4.43
2022-07-29T22:45:29.649Z,6.55
2022-07-29T22:48:19.518Z,2.72
2022-07-29T22:51:09.363Z,3.00
2022-07-29T22:53:58.685Z,6.80
2022-07-29T22:56:47.218Z,2.60
2022-07-29T22:59:37.618Z,2.92
2022-07-29T23:02:27.419Z,4.57
2022-07-29T23:05:16.367Z,5.03
2022-07-29T23:08:06.574Z,5.38
2022-07-29T23:10:55.106Z,2.70
2022-07-29T23:13:43.614Z,4.43
2022-07-29T23:16:32.197Z,5.32
2022-07-29T23:19:21.516Z,3.53
2022-07-29T23:22:10.054Z,3.97
2022-07-29T23:24:59.944Z,5.05
2022-07-29T23:27:48.491Z,4.22
2022-07-29T23:30:37.646Z,3.78
2022-07-29T23:33:26.330Z,2.90
2022-07-29T23:36:14.797Z,4.00
2022-07-29T23:39:03.360Z,3.90
2022-07-29T23:41:53.299Z,8.60
2022-07-29T23:44:41.790Z,7.10
2022-07-29T23:47:30.289Z,10.15
2022-07-29T23:50:18.931Z,6.32
2022-07-29T23:53:08.569Z,13.73
2022-07-29T23:55:57.261Z,6.13
2022-07-29T23:58:47.143Z,4.40
